This is the latest recevied weather packets stored in our database for station/object LKKB. If no packets are shown the sender has not sent any weather packets the latest 1 day(s).
| Time | Temp. | Humidity | Pressure | Rain* | Wind** | Luminosity | Snow |
|---|---|---|---|---|---|---|---|
| 1777969862 | 18.89° C | 59% | 1008 hPa | - | 2.68 m/s, 350° | - | - |
| 1777969133 | 17.78° C | 63% | - | - | 2.24 m/s, 40° | - | - |
| 1777968063 | 17.78° C | 63% | 1008 hPa | - | 2.24 m/s, 20° | - | - |
| 1777966263 | 17.22° C | 67% | 1008 hPa | - | 2.68 m/s, 30° | - | - |
| 1777965531 | 17.22° C | 67% | - | - | 2.24 m/s, 30° | - | - |
| 1777964531 | 17.22° C | 67% | 1009 hPa | - | 2.24 m/s, 10° | - | - |
| 1777962663 | 16.11° C | 77% | 1008 hPa | - | 1.34 m/s, 360° | - | - |
| 1777961934 | 16.11° C | 72% | - | - | 2.24 m/s, 10° | - | - |
| 1777960863 | 16.11° C | 77% | 1009 hPa | - | 1.34 m/s, 20° | - | - |
| 1777959063 | 17.22° C | 67% | 1009 hPa | - | 0.89 m/s, 0° | - | - |
| 1777958332 | 15° C | 77% | - | - | 0.89 m/s, 270° | - | - |
| 1777957330 | 16.11° C | 72% | 1009 hPa | - | 0 m/s | - | - |
| 1777955463 | 13.89° C | 82% | 1009 hPa | - | 0.89 m/s, 0° | - | - |
| 1777954732 | 13.89° C | 76% | - | - | 0.89 m/s, 300° | - | - |
| 1777953663 | 12.78° C | 87% | 1009 hPa | - | 0.45 m/s, 0° | - | - |
| 1777951863 | 13.89° C | 87% | 1009 hPa | - | 2.24 m/s, 270° | - | - |
| 1777951132 | 13.89° C | 87% | - | - | 2.24 m/s, 200° | - | - |
| 1777950063 | 15° C | 77% | 1009 hPa | - | 1.34 m/s, 200° | - | - |
| 1777948262 | 13.89° C | 87% | 1009 hPa | - | 0.89 m/s, 0° | - | - |
| 1777947531 | 15° C | 72% | - | - | 0.89 m/s, 310° | - | - |
| 1777946463 | 15° C | 77% | 1009 hPa | - | 0.89 m/s, 0° | - | - |
| 1777944662 | 15° C | 77% | 1009 hPa | - | 1.34 m/s, 320° | - | - |
| 1777943934 | 16.11° C | 67% | - | - | 0.89 m/s, 20° | - | - |
| 1777942863 | 16.11° C | 72% | 1009 hPa | - | 0.89 m/s, 0° | - | - |
| 1777941063 | 16.11° C | 72% | 1010 hPa | - | 1.34 m/s, 0° | - | - |
* Rain since midnight (hover to see other rain measurements)
** Current wind speed in m/s (hover to see current wind gust speed)